sensor_id;sensor_type;location;lat;lon;timestamp;P1;durP1;ratioP1;P2;durP2;ratioP2
55031;SDS011;40928;51.076;7.950;2023-05-16T00:01:25;19.52;;;10.50;;
55031;SDS011;40928;51.076;7.950;2023-05-16T00:03:54;18.45;;;10.20;;
55031;SDS011;40928;51.076;7.950;2023-05-16T00:06:21;17.38;;;10.07;;
55031;SDS011;40928;51.076;7.950;2023-05-16T00:08:47;18.38;;;9.77;;
55031;SDS011;40928;51.076;7.950;2023-05-16T00:11:15;13.02;;;7.63;;
55031;SDS011;40928;51.076;7.950;2023-05-16T00:13:41;19.65;;;10.88;;
55031;SDS011;40928;51.076;7.950;2023-05-16T00:16:07;20.10;;;10.80;;
55031;SDS011;40928;51.076;7.950;2023-05-16T00:18:33;21.55;;;9.88;;
55031;SDS011;40928;51.076;7.950;2023-05-16T00:21:05;17.30;;;9.80;;
55031;SDS011;40928;51.076;7.950;2023-05-16T00:23:31;19.08;;;10.02;;
55031;SDS011;40928;51.076;7.950;2023-05-16T00:25:57;20.27;;;10.35;;
55031;SDS011;40928;51.076;7.950;2023-05-16T00:28:23;20.10;;;11.07;;
55031;SDS011;40928;51.076;7.950;2023-05-16T00:30:48;23.50;;;11.05;;
55031;SDS011;40928;51.076;7.950;2023-05-16T00:33:14;17.50;;;9.75;;
55031;SDS011;40928;51.076;7.950;2023-05-16T00:35:40;20.95;;;12.02;;
55031;SDS011;40928;51.076;7.950;2023-05-16T00:38:06;19.08;;;11.40;;
55031;SDS011;40928;51.076;7.950;2023-05-16T00:40:32;14.43;;;9.07;;
55031;SDS011;40928;51.076;7.950;2023-05-16T00:42:59;23.08;;;12.07;;
55031;SDS011;40928;51.076;7.950;2023-05-16T00:45:25;16.40;;;9.85;;
55031;SDS011;40928;51.076;7.950;2023-05-16T00:47:51;19.50;;;11.88;;
55031;SDS011;40928;51.076;7.950;2023-05-16T00:50:18;20.55;;;12.93;;
55031;SDS011;40928;51.076;7.950;2023-05-16T00:52:44;17.92;;;10.73;;
55031;SDS011;40928;51.076;7.950;2023-05-16T00:55:10;16.73;;;10.82;;
55031;SDS011;40928;51.076;7.950;2023-05-16T00:57:36;16.48;;;9.45;;
55031;SDS011;40928;51.076;7.950;2023-05-16T01:00:05;19.92;;;10.55;;
55031;SDS011;40928;51.076;7.950;2023-05-16T01:02:34;15.30;;;9.60;;
55031;SDS011;40928;51.076;7.950;2023-05-16T01:05:01;14.90;;;10.68;;
55031;SDS011;40928;51.076;7.950;2023-05-16T01:07:30;17.20;;;10.43;;
55031;SDS011;40928;51.076;7.950;2023-05-16T01:09:56;16.48;;;10.27;;
55031;SDS011;40928;51.076;7.950;2023-05-16T01:12:27;16.52;;;10.65;;
55031;SDS011;40928;51.076;7.950;2023-05-16T01:15:08;13.00;;;9.25;;
55031;SDS011;40928;51.076;7.950;2023-05-16T01:20:59;13.48;;;8.82;;
55031;SDS011;40928;51.076;7.950;2023-05-16T01:26:26;5.13;;;3.38;;
55031;SDS011;40928;51.076;7.950;2023-05-16T01:28:53;4.68;;;3.28;;
55031;SDS011;40928;51.076;7.950;2023-05-16T01:31:19;8.15;;;2.50;;
55031;SDS011;40928;51.076;7.950;2023-05-16T01:33:46;3.85;;;1.80;;
55031;SDS011;40928;51.076;7.950;2023-05-16T01:36:20;2.65;;;1.20;;
55031;SDS011;40928;51.076;7.950;2023-05-16T01:38:58;1.50;;;0.90;;
55031;SDS011;40928;51.076;7.950;2023-05-16T01:41:34;3.72;;;0.98;;
55031;SDS011;40928;51.076;7.950;2023-05-16T01:44:30;2.25;;;0.90;;
55031;SDS011;40928;51.076;7.950;2023-05-16T01:47:08;13.88;;;0.80;;
55031;SDS011;40928;51.076;7.950;2023-05-16T01:49:40;2.95;;;0.75;;
55031;SDS011;40928;51.076;7.950;2023-05-16T01:52:12;1.10;;;0.70;;
55031;SDS011;40928;51.076;7.950;2023-05-16T01:54:44;3.40;;;0.90;;
55031;SDS011;40928;51.076;7.950;2023-05-16T01:57:12;1.63;;;0.80;;
55031;SDS011;40928;51.076;7.950;2023-05-16T01:59:38;1.55;;;0.95;;
55031;SDS011;40928;51.076;7.950;2023-05-16T02:02:08;1.27;;;0.70;;
55031;SDS011;40928;51.076;7.950;2023-05-16T02:04:36;1.60;;;1.00;;
55031;SDS011;40928;51.076;7.950;2023-05-16T02:07:02;1.50;;;0.70;;
55031;SDS011;40928;51.076;7.950;2023-05-16T02:09:28;2.17;;;1.02;;
55031;SDS011;40928;51.076;7.950;2023-05-16T02:11:54;1.27;;;0.80;;
55031;SDS011;40928;51.076;7.950;2023-05-16T02:14:20;1.17;;;0.73;;
55031;SDS011;40928;51.076;7.950;2023-05-16T02:16:46;1.88;;;0.80;;
55031;SDS011;40928;51.076;7.950;2023-05-16T02:19:13;1.20;;;0.82;;
55031;SDS011;40928;51.076;7.950;2023-05-16T02:21:38;1.38;;;0.98;;
55031;SDS011;40928;51.076;7.950;2023-05-16T02:24:04;1.50;;;0.82;;
55031;SDS011;40928;51.076;7.950;2023-05-16T02:26:30;1.20;;;1.00;;
55031;SDS011;40928;51.076;7.950;2023-05-16T02:28:56;1.80;;;1.10;;
55031;SDS011;40928;51.076;7.950;2023-05-16T02:31:28;2.38;;;1.27;;
55031;SDS011;40928;51.076;7.950;2023-05-16T02:33:55;1.85;;;1.05;;
55031;SDS011;40928;51.076;7.950;2023-05-16T02:36:23;2.45;;;1.30;;
55031;SDS011;40928;51.076;7.950;2023-05-16T02:38:49;1.85;;;1.40;;
55031;SDS011;40928;51.076;7.950;2023-05-16T02:41:14;1.67;;;1.10;;
55031;SDS011;40928;51.076;7.950;2023-05-16T02:43:40;2.10;;;1.33;;
55031;SDS011;40928;51.076;7.950;2023-05-16T02:46:32;1.73;;;1.15;;
55031;SDS011;40928;51.076;7.950;2023-05-16T02:48:58;2.40;;;1.20;;
55031;SDS011;40928;51.076;7.950;2023-05-16T02:51:25;2.22;;;1.20;;
55031;SDS011;40928;51.076;7.950;2023-05-16T02:53:51;2.65;;;1.60;;
55031;SDS011;40928;51.076;7.950;2023-05-16T02:56:18;3.00;;;1.70;;
55031;SDS011;40928;51.076;7.950;2023-05-16T02:58:45;2.20;;;1.45;;
55031;SDS011;40928;51.076;7.950;2023-05-16T03:01:12;2.05;;;1.55;;
55031;SDS011;40928;51.076;7.950;2023-05-16T03:03:38;2.92;;;1.83;;
55031;SDS011;40928;51.076;7.950;2023-05-16T03:06:04;3.83;;;2.08;;
55031;SDS011;40928;51.076;7.950;2023-05-16T03:08:31;2.72;;;1.85;;
55031;SDS011;40928;51.076;7.950;2023-05-16T03:10:57;2.85;;;2.05;;
55031;SDS011;40928;51.076;7.950;2023-05-16T03:13:23;3.10;;;1.92;;
55031;SDS011;40928;51.076;7.950;2023-05-16T03:15:49;2.70;;;1.50;;
55031;SDS011;40928;51.076;7.950;2023-05-16T03:18:16;5.00;;;1.67;;
55031;SDS011;40928;51.076;7.950;2023-05-16T03:20:42;2.67;;;1.85;;
55031;SDS011;40928;51.076;7.950;2023-05-16T03:23:08;1.90;;;1.20;;
55031;SDS011;40928;51.076;7.950;2023-05-16T03:25:34;1.95;;;1.33;;
55031;SDS011;40928;51.076;7.950;2023-05-16T03:28:02;2.17;;;1.60;;
55031;SDS011;40928;51.076;7.950;2023-05-16T03:30:30;1.95;;;1.10;;
55031;SDS011;40928;51.076;7.950;2023-05-16T03:32:56;1.35;;;1.05;;
55031;SDS011;40928;51.076;7.950;2023-05-16T03:35:22;2.38;;;1.08;;
55031;SDS011;40928;51.076;7.950;2023-05-16T03:37:48;1.55;;;0.85;;
55031;SDS011;40928;51.076;7.950;2023-05-16T03:40:14;0.80;;;0.57;;
55031;SDS011;40928;51.076;7.950;2023-05-16T03:42:40;0.95;;;0.68;;
55031;SDS011;40928;51.076;7.950;2023-05-16T03:45:06;0.90;;;0.65;;
55031;SDS011;40928;51.076;7.950;2023-05-16T03:47:33;1.23;;;0.73;;
55031;SDS011;40928;51.076;7.950;2023-05-16T03:49:59;0.50;;;0.35;;
55031;SDS011;40928;51.076;7.950;2023-05-16T03:52:24;0.80;;;0.32;;
55031;SDS011;40928;51.076;7.950;2023-05-16T03:54:50;0.55;;;0.20;;
55031;SDS011;40928;51.076;7.950;2023-05-16T03:57:16;0.85;;;0.20;;
55031;SDS011;40928;51.076;7.950;2023-05-16T03:59:42;0.20;;;0.20;;
55031;SDS011;40928;51.076;7.950;2023-05-16T04:02:07;1.75;;;0.20;;
55031;SDS011;40928;51.076;7.950;2023-05-16T04:04:33;0.10;;;0.10;;
55031;SDS011;40928;51.076;7.950;2023-05-16T04:07:00;0.10;;;0.10;;
55031;SDS011;40928;51.076;7.950;2023-05-16T04:09:27;0.22;;;0.20;;
55031;SDS011;40928;51.076;7.950;2023-05-16T04:11:53;2.40;;;0.20;;
55031;SDS011;40928;51.076;7.950;2023-05-16T04:14:23;0.38;;;0.20;;
55031;SDS011;40928;51.076;7.950;2023-05-16T04:16:50;1.00;;;0.17;;
55031;SDS011;40928;51.076;7.950;2023-05-16T04:19:16;0.10;;;0.10;;
55031;SDS011;40928;51.076;7.950;2023-05-16T04:21:42;0.75;;;0.20;;
55031;SDS011;40928;51.076;7.950;2023-05-16T04:24:08;0.22;;;0.10;;
55031;SDS011;40928;51.076;7.950;2023-05-16T04:26:34;0.17;;;0.17;;
55031;SDS011;40928;51.076;7.950;2023-05-16T04:29:01;0.43;;;0.20;;
55031;SDS011;40928;51.076;7.950;2023-05-16T04:31:29;0.95;;;0.17;;
55031;SDS011;40928;51.076;7.950;2023-05-16T04:33:55;0.45;;;0.22;;
55031;SDS011;40928;51.076;7.950;2023-05-16T04:36:24;1.25;;;0.28;;
55031;SDS011;40928;51.076;7.950;2023-05-16T04:38:54;0.90;;;0.30;;
55031;SDS011;40928;51.076;7.950;2023-05-16T04:41:20;0.50;;;0.20;;
55031;SDS011;40928;51.076;7.950;2023-05-16T04:43:47;0.35;;;0.30;;
55031;SDS011;40928;51.076;7.950;2023-05-16T04:46:13;0.63;;;0.40;;
55031;SDS011;40928;51.076;7.950;2023-05-16T04:48:40;1.05;;;0.40;;
55031;SDS011;40928;51.076;7.950;2023-05-16T04:51:06;2.00;;;0.52;;
55031;SDS011;40928;51.076;7.950;2023-05-16T04:53:31;0.40;;;0.40;;
55031;SDS011;40928;51.076;7.950;2023-05-16T04:55:58;0.73;;;0.50;;
55031;SDS011;40928;51.076;7.950;2023-05-16T04:58:25;0.75;;;0.52;;
55031;SDS011;40928;51.076;7.950;2023-05-16T05:00:51;4.22;;;0.85;;
55031;SDS011;40928;51.076;7.950;2023-05-16T05:03:20;2.50;;;0.75;;
55031;SDS011;40928;51.076;7.950;2023-05-16T05:05:45;2.58;;;0.75;;
55031;SDS011;40928;51.076;7.950;2023-05-16T05:08:11;1.48;;;0.82;;
55031;SDS011;40928;51.076;7.950;2023-05-16T05:10:37;0.80;;;0.55;;
55031;SDS011;40928;51.076;7.950;2023-05-16T05:13:05;1.52;;;0.40;;
55031;SDS011;40928;51.076;7.950;2023-05-16T05:15:30;3.47;;;0.70;;
55031;SDS011;40928;51.076;7.950;2023-05-16T05:17:56;4.22;;;1.15;;
55031;SDS011;40928;51.076;7.950;2023-05-16T05:20:25;1.10;;;0.70;;
55031;SDS011;40928;51.076;7.950;2023-05-16T05:23:01;2.75;;;0.70;;
55031;SDS011;40928;51.076;7.950;2023-05-16T05:25:27;4.13;;;0.75;;
55031;SDS011;40928;51.076;7.950;2023-05-16T05:27:54;3.00;;;0.80;;
55031;SDS011;40928;51.076;7.950;2023-05-16T05:30:26;0.85;;;0.70;;
55031;SDS011;40928;51.076;7.950;2023-05-16T05:32:53;2.95;;;1.05;;
55031;SDS011;40928;51.076;7.950;2023-05-16T05:35:25;2.88;;;1.00;;
55031;SDS011;40928;51.076;7.950;2023-05-16T05:37:51;4.25;;;1.25;;
55031;SDS011;40928;51.076;7.950;2023-05-16T05:40:17;4.45;;;1.20;;
55031;SDS011;40928;51.076;7.950;2023-05-16T05:42:46;3.00;;;1.50;;
55031;SDS011;40928;51.076;7.950;2023-05-16T05:45:13;4.15;;;1.40;;
55031;SDS011;40928;51.076;7.950;2023-05-16T05:47:40;5.82;;;1.40;;
55031;SDS011;40928;51.076;7.950;2023-05-16T05:50:06;4.15;;;1.52;;
55031;SDS011;40928;51.076;7.950;2023-05-16T05:52:33;4.00;;;1.40;;
55031;SDS011;40928;51.076;7.950;2023-05-16T05:54:59;7.18;;;1.35;;
55031;SDS011;40928;51.076;7.950;2023-05-16T05:57:26;6.25;;;1.65;;
55031;SDS011;40928;51.076;7.950;2023-05-16T05:59:52;12.05;;;1.90;;
55031;SDS011;40928;51.076;7.950;2023-05-16T06:02:18;8.57;;;1.80;;
55031;SDS011;40928;51.076;7.950;2023-05-16T06:04:45;10.38;;;1.80;;
55031;SDS011;40928;51.076;7.950;2023-05-16T06:07:10;9.98;;;1.83;;
55031;SDS011;40928;51.076;7.950;2023-05-16T06:09:37;7.85;;;1.73;;
55031;SDS011;40928;51.076;7.950;2023-05-16T06:12:03;7.25;;;1.73;;
55031;SDS011;40928;51.076;7.950;2023-05-16T06:14:29;15.20;;;2.38;;
55031;SDS011;40928;51.076;7.950;2023-05-16T06:16:59;6.47;;;1.70;;
55031;SDS011;40928;51.076;7.950;2023-05-16T06:19:25;14.68;;;1.80;;
55031;SDS011;40928;51.076;7.950;2023-05-16T06:21:50;10.75;;;1.75;;
55031;SDS011;40928;51.076;7.950;2023-05-16T06:24:16;10.15;;;2.15;;
55031;SDS011;40928;51.076;7.950;2023-05-16T06:26:42;5.05;;;1.40;;
55031;SDS011;40928;51.076;7.950;2023-05-16T06:29:10;7.88;;;1.45;;
55031;SDS011;40928;51.076;7.950;2023-05-16T06:31:36;7.80;;;1.58;;
55031;SDS011;40928;51.076;7.950;2023-05-16T06:34:01;10.48;;;2.22;;
55031;SDS011;40928;51.076;7.950;2023-05-16T06:36:27;20.58;;;3.00;;
55031;SDS011;40928;51.076;7.950;2023-05-16T06:38:53;9.93;;;1.77;;
55031;SDS011;40928;51.076;7.950;2023-05-16T06:41:19;12.23;;;1.90;;
55031;SDS011;40928;51.076;7.950;2023-05-16T06:43:45;11.80;;;1.67;;
55031;SDS011;40928;51.076;7.950;2023-05-16T06:46:11;14.48;;;2.40;;
55031;SDS011;40928;51.076;7.950;2023-05-16T06:48:37;9.63;;;1.60;;
55031;SDS011;40928;51.076;7.950;2023-05-16T06:51:02;13.73;;;1.73;;
55031;SDS011;40928;51.076;7.950;2023-05-16T06:53:28;8.38;;;1.35;;
55031;SDS011;40928;51.076;7.950;2023-05-16T06:55:54;8.55;;;1.50;;
55031;SDS011;40928;51.076;7.950;2023-05-16T06:58:20;17.15;;;3.17;;
55031;SDS011;40928;51.076;7.950;2023-05-16T07:00:47;8.75;;;1.60;;
55031;SDS011;40928;51.076;7.950;2023-05-16T07:03:14;16.45;;;1.80;;
55031;SDS011;40928;51.076;7.950;2023-05-16T07:05:39;11.30;;;1.40;;
55031;SDS011;40928;51.076;7.950;2023-05-16T07:08:07;16.98;;;1.85;;
55031;SDS011;40928;51.076;7.950;2023-05-16T07:10:34;6.53;;;1.50;;
55031;SDS011;40928;51.076;7.950;2023-05-16T07:13:00;6.95;;;1.63;;
55031;SDS011;40928;51.076;7.950;2023-05-16T07:15:26;5.47;;;1.30;;
55031;SDS011;40928;51.076;7.950;2023-05-16T07:17:52;15.27;;;1.75;;
55031;SDS011;40928;51.076;7.950;2023-05-16T07:20:17;18.92;;;1.85;;
55031;SDS011;40928;51.076;7.950;2023-05-16T07:22:43;11.90;;;1.80;;
55031;SDS011;40928;51.076;7.950;2023-05-16T07:25:09;6.07;;;1.73;;
55031;SDS011;40928;51.076;7.950;2023-05-16T07:27:40;13.00;;;1.35;;
55031;SDS011;40928;51.076;7.950;2023-05-16T07:30:09;15.05;;;1.42;;
55031;SDS011;40928;51.076;7.950;2023-05-16T07:32:35;6.63;;;0.95;;
55031;SDS011;40928;51.076;7.950;2023-05-16T07:35:02;9.90;;;1.73;;
55031;SDS011;40928;51.076;7.950;2023-05-16T07:37:29;10.85;;;1.55;;
55031;SDS011;40928;51.076;7.950;2023-05-16T07:39:55;11.27;;;1.35;;
55031;SDS011;40928;51.076;7.950;2023-05-16T07:42:20;6.40;;;1.45;;
55031;SDS011;40928;51.076;7.950;2023-05-16T07:44:46;5.25;;;1.00;;
55031;SDS011;40928;51.076;7.950;2023-05-16T07:47:12;15.80;;;1.73;;
55031;SDS011;40928;51.076;7.950;2023-05-16T07:49:37;8.13;;;1.20;;
55031;SDS011;40928;51.076;7.950;2023-05-16T07:52:04;6.75;;;1.20;;
55031;SDS011;40928;51.076;7.950;2023-05-16T07:54:31;6.45;;;1.13;;
55031;SDS011;40928;51.076;7.950;2023-05-16T07:56:57;11.32;;;1.00;;
55031;SDS011;40928;51.076;7.950;2023-05-16T07:59:23;4.75;;;1.17;;
55031;SDS011;40928;51.076;7.950;2023-05-16T08:01:49;10.70;;;1.27;;
55031;SDS011;40928;51.076;7.950;2023-05-16T08:04:18;17.98;;;2.22;;
55031;SDS011;40928;51.076;7.950;2023-05-16T08:06:46;10.02;;;1.85;;
55031;SDS011;40928;51.076;7.950;2023-05-16T08:09:12;13.55;;;1.58;;
55031;SDS011;40928;51.076;7.950;2023-05-16T08:11:38;5.45;;;1.02;;
55031;SDS011;40928;51.076;7.950;2023-05-16T08:14:04;9.30;;;1.00;;
55031;SDS011;40928;51.076;7.950;2023-05-16T08:16:30;8.70;;;1.73;;
55031;SDS011;40928;51.076;7.950;2023-05-16T08:18:56;5.97;;;0.82;;
55031;SDS011;40928;51.076;7.950;2023-05-16T08:21:21;8.55;;;1.20;;
55031;SDS011;40928;51.076;7.950;2023-05-16T08:23:47;4.05;;;0.70;;
55031;SDS011;40928;51.076;7.950;2023-05-16T08:26:13;7.75;;;0.90;;
55031;SDS011;40928;51.076;7.950;2023-05-16T08:28:40;6.78;;;1.30;;
55031;SDS011;40928;51.076;7.950;2023-05-16T08:31:06;6.15;;;0.90;;
55031;SDS011;40928;51.076;7.950;2023-05-16T08:33:32;5.65;;;0.80;;
55031;SDS011;40928;51.076;7.950;2023-05-16T08:35:58;5.25;;;0.93;;
55031;SDS011;40928;51.076;7.950;2023-05-16T08:38:25;5.05;;;1.10;;
55031;SDS011;40928;51.076;7.950;2023-05-16T08:40:51;6.78;;;0.98;;
55031;SDS011;40928;51.076;7.950;2023-05-16T08:43:16;7.30;;;1.45;;
55031;SDS011;40928;51.076;7.950;2023-05-16T08:45:42;8.45;;;1.58;;
55031;SDS011;40928;51.076;7.950;2023-05-16T08:48:09;4.32;;;0.80;;
55031;SDS011;40928;51.076;7.950;2023-05-16T08:50:36;15.32;;;1.45;;
55031;SDS011;40928;51.076;7.950;2023-05-16T08:53:10;9.40;;;1.38;;
55031;SDS011;40928;51.076;7.950;2023-05-16T08:55:40;7.63;;;1.25;;
55031;SDS011;40928;51.076;7.950;2023-05-16T08:58:08;6.78;;;0.93;;
55031;SDS011;40928;51.076;7.950;2023-05-16T09:00:35;6.28;;;0.88;;
55031;SDS011;40928;51.076;7.950;2023-05-16T09:03:00;6.68;;;0.70;;
55031;SDS011;40928;51.076;7.950;2023-05-16T09:05:28;3.38;;;0.73;;
55031;SDS011;40928;51.076;7.950;2023-05-16T09:07:56;6.47;;;0.70;;
55031;SDS011;40928;51.076;7.950;2023-05-16T09:10:22;5.50;;;0.88;;
55031;SDS011;40928;51.076;7.950;2023-05-16T09:12:48;4.70;;;0.90;;
55031;SDS011;40928;51.076;7.950;2023-05-16T09:15:16;5.60;;;0.80;;
55031;SDS011;40928;51.076;7.950;2023-05-16T09:17:43;5.55;;;0.77;;
55031;SDS011;40928;51.076;7.950;2023-05-16T09:20:17;6.88;;;1.13;;
55031;SDS011;40928;51.076;7.950;2023-05-16T09:22:51;4.40;;;0.80;;
55031;SDS011;40928;51.076;7.950;2023-05-16T09:25:21;7.20;;;0.80;;
55031;SDS011;40928;51.076;7.950;2023-05-16T09:27:55;3.97;;;0.65;;
55031;SDS011;40928;51.076;7.950;2023-05-16T09:30:22;5.07;;;0.60;;
55031;SDS011;40928;51.076;7.950;2023-05-16T09:32:52;5.70;;;0.93;;
55031;SDS011;40928;51.076;7.950;2023-05-16T09:35:21;3.70;;;0.90;;
55031;SDS011;40928;51.076;7.950;2023-05-16T09:37:48;5.25;;;0.70;;
55031;SDS011;40928;51.076;7.950;2023-05-16T09:40:19;7.95;;;0.77;;
55031;SDS011;40928;51.076;7.950;2023-05-16T09:42:46;4.70;;;1.15;;
55031;SDS011;40928;51.076;7.950;2023-05-16T09:45:26;5.57;;;0.70;;
55031;SDS011;40928;51.076;7.950;2023-05-16T09:47:52;3.17;;;0.50;;
55031;SDS011;40928;51.076;7.950;2023-05-16T09:50:17;2.22;;;0.50;;
55031;SDS011;40928;51.076;7.950;2023-05-16T09:52:43;9.27;;;1.05;;
55031;SDS011;40928;51.076;7.950;2023-05-16T09:55:09;4.18;;;0.57;;
55031;SDS011;40928;51.076;7.950;2023-05-16T09:57:38;5.90;;;0.70;;
55031;SDS011;40928;51.076;7.950;2023-05-16T10:00:06;6.78;;;1.45;;
55031;SDS011;40928;51.076;7.950;2023-05-16T10:02:35;8.43;;;0.60;;
55031;SDS011;40928;51.076;7.950;2023-05-16T10:05:02;5.30;;;0.70;;
55031;SDS011;40928;51.076;7.950;2023-05-16T10:07:29;6.40;;;0.93;;
55031;SDS011;40928;51.076;7.950;2023-05-16T10:09:58;5.93;;;0.70;;
55031;SDS011;40928;51.076;7.950;2023-05-16T10:12:28;5.35;;;0.75;;
55031;SDS011;40928;51.076;7.950;2023-05-16T10:15:01;6.55;;;0.82;;
55031;SDS011;40928;51.076;7.950;2023-05-16T10:17:32;5.13;;;0.60;;
55031;SDS011;40928;51.076;7.950;2023-05-16T10:20:01;4.78;;;1.08;;
55031;SDS011;40928;51.076;7.950;2023-05-16T10:22:34;3.05;;;0.63;;
55031;SDS011;40928;51.076;7.950;2023-05-16T10:27:50;7.85;;;0.90;;
55031;SDS011;40928;51.076;7.950;2023-05-16T10:30:17;3.67;;;0.45;;
55031;SDS011;40928;51.076;7.950;2023-05-16T10:32:44;18.05;;;2.22;;
55031;SDS011;40928;51.076;7.950;2023-05-16T10:35:10;2.88;;;0.63;;
55031;SDS011;40928;51.076;7.950;2023-05-16T10:37:36;13.80;;;1.00;;
55031;SDS011;40928;51.076;7.950;2023-05-16T10:40:04;3.88;;;0.68;;
55031;SDS011;40928;51.076;7.950;2023-05-16T10:42:33;2.85;;;0.47;;
55031;SDS011;40928;51.076;7.950;2023-05-16T10:53:20;6.63;;;0.90;;
55031;SDS011;40928;51.076;7.950;2023-05-16T10:58:17;6.70;;;1.38;;
55031;SDS011;40928;51.076;7.950;2023-05-16T11:00:47;4.78;;;0.60;;
55031;SDS011;40928;51.076;7.950;2023-05-16T11:03:21;7.43;;;0.80;;
55031;SDS011;40928;51.076;7.950;2023-05-16T11:05:52;6.80;;;0.68;;
55031;SDS011;40928;51.076;7.950;2023-05-16T11:08:18;1.73;;;0.40;;
55031;SDS011;40928;51.076;7.950;2023-05-16T11:10:44;3.35;;;0.63;;
55031;SDS011;40928;51.076;7.950;2023-05-16T11:13:10;5.43;;;0.75;;
55031;SDS011;40928;51.076;7.950;2023-05-16T11:15:35;4.13;;;0.70;;
55031;SDS011;40928;51.076;7.950;2023-05-16T11:20:40;3.08;;;0.55;;
55031;SDS011;40928;51.076;7.950;2023-05-16T11:25:41;7.80;;;0.82;;
55031;SDS011;40928;51.076;7.950;2023-05-16T11:28:11;4.88;;;0.50;;
55031;SDS011;40928;51.076;7.950;2023-05-16T11:30:42;5.32;;;0.70;;
55031;SDS011;40928;51.076;7.950;2023-05-16T11:33:10;2.90;;;0.50;;
55031;SDS011;40928;51.076;7.950;2023-05-16T11:35:37;7.28;;;0.50;;
55031;SDS011;40928;51.076;7.950;2023-05-16T11:38:03;3.97;;;0.57;;
55031;SDS011;40928;51.076;7.950;2023-05-16T11:40:29;2.92;;;0.55;;
55031;SDS011;40928;51.076;7.950;2023-05-16T11:42:58;3.75;;;0.60;;
55031;SDS011;40928;51.076;7.950;2023-05-16T11:45:27;4.53;;;0.50;;
55031;SDS011;40928;51.076;7.950;2023-05-16T11:47:53;7.43;;;0.77;;
55031;SDS011;40928;51.076;7.950;2023-05-16T11:50:21;3.80;;;0.47;;
55031;SDS011;40928;51.076;7.950;2023-05-16T11:52:48;2.53;;;0.20;;
55031;SDS011;40928;51.076;7.950;2023-05-16T11:55:19;1.75;;;0.45;;
55031;SDS011;40928;51.076;7.950;2023-05-16T11:57:48;5.05;;;0.50;;
55031;SDS011;40928;51.076;7.950;2023-05-16T12:00:16;2.80;;;0.63;;
55031;SDS011;40928;51.076;7.950;2023-05-16T12:02:47;2.15;;;0.40;;
55031;SDS011;40928;51.076;7.950;2023-05-16T12:05:17;3.83;;;0.60;;
55031;SDS011;40928;51.076;7.950;2023-05-16T12:07:44;3.40;;;0.50;;
55031;SDS011;40928;51.076;7.950;2023-05-16T12:10:12;2.72;;;0.70;;
55031;SDS011;40928;51.076;7.950;2023-05-16T12:12:40;2.75;;;0.30;;
55031;SDS011;40928;51.076;7.950;2023-05-16T12:15:07;3.45;;;0.52;;
55031;SDS011;40928;51.076;7.950;2023-05-16T12:17:34;4.68;;;0.65;;
55031;SDS011;40928;51.076;7.950;2023-05-16T12:20:02;5.80;;;0.70;;
55031;SDS011;40928;51.076;7.950;2023-05-16T12:22:34;5.35;;;0.57;;
55031;SDS011;40928;51.076;7.950;2023-05-16T12:27:54;2.42;;;0.52;;
55031;SDS011;40928;51.076;7.950;2023-05-16T12:30:22;2.45;;;0.43;;
55031;SDS011;40928;51.076;7.950;2023-05-16T12:32:58;4.57;;;0.88;;
55031;SDS011;40928;51.076;7.950;2023-05-16T12:35:36;4.40;;;0.75;;
55031;SDS011;40928;51.076;7.950;2023-05-16T12:38:07;3.55;;;0.73;;
55031;SDS011;40928;51.076;7.950;2023-05-16T12:40:37;1.73;;;0.60;;
55031;SDS011;40928;51.076;7.950;2023-05-16T12:45:39;5.38;;;0.95;;
55031;SDS011;40928;51.076;7.950;2023-05-16T12:48:12;3.15;;;0.52;;
55031;SDS011;40928;51.076;7.950;2023-05-16T12:50:38;6.60;;;0.98;;
55031;SDS011;40928;51.076;7.950;2023-05-16T12:53:09;3.30;;;0.90;;
55031;SDS011;40928;51.076;7.950;2023-05-16T12:55:37;7.30;;;0.82;;
55031;SDS011;40928;51.076;7.950;2023-05-16T12:58:03;3.10;;;0.50;;
55031;SDS011;40928;51.076;7.950;2023-05-16T13:00:28;2.88;;;0.52;;
55031;SDS011;40928;51.076;7.950;2023-05-16T13:02:55;5.30;;;0.55;;
55031;SDS011;40928;51.076;7.950;2023-05-16T13:05:21;4.13;;;0.80;;
55031;SDS011;40928;51.076;7.950;2023-05-16T13:07:48;5.50;;;0.50;;
55031;SDS011;40928;51.076;7.950;2023-05-16T13:10:16;3.63;;;0.65;;
55031;SDS011;40928;51.076;7.950;2023-05-16T13:12:42;4.63;;;0.93;;
55031;SDS011;40928;51.076;7.950;2023-05-16T13:15:09;4.43;;;0.70;;
55031;SDS011;40928;51.076;7.950;2023-05-16T13:17:40;4.10;;;0.50;;
55031;SDS011;40928;51.076;7.950;2023-05-16T13:20:10;3.40;;;0.50;;
55031;SDS011;40928;51.076;7.950;2023-05-16T13:22:39;3.50;;;0.60;;
55031;SDS011;40928;51.076;7.950;2023-05-16T13:25:06;4.50;;;0.75;;
55031;SDS011;40928;51.076;7.950;2023-05-16T13:27:33;3.67;;;0.50;;
55031;SDS011;40928;51.076;7.950;2023-05-16T13:29:59;2.88;;;0.63;;
55031;SDS011;40928;51.076;7.950;2023-05-16T13:32:25;3.50;;;0.57;;
55031;SDS011;40928;51.076;7.950;2023-05-16T13:34:51;2.70;;;0.65;;
55031;SDS011;40928;51.076;7.950;2023-05-16T13:37:17;3.53;;;0.50;;
55031;SDS011;40928;51.076;7.950;2023-05-16T13:39:43;7.07;;;0.75;;
55031;SDS011;40928;51.076;7.950;2023-05-16T13:42:09;8.05;;;0.70;;
55031;SDS011;40928;51.076;7.950;2023-05-16T13:44:35;5.68;;;0.70;;
55031;SDS011;40928;51.076;7.950;2023-05-16T13:47:01;2.28;;;0.43;;
55031;SDS011;40928;51.076;7.950;2023-05-16T13:49:27;6.00;;;1.20;;
55031;SDS011;40928;51.076;7.950;2023-05-16T13:51:53;6.60;;;1.48;;
55031;SDS011;40928;51.076;7.950;2023-05-16T13:54:19;5.47;;;1.20;;
55031;SDS011;40928;51.076;7.950;2023-05-16T13:56:46;4.80;;;0.82;;
55031;SDS011;40928;51.076;7.950;2023-05-16T13:59:11;8.35;;;0.90;;
55031;SDS011;40928;51.076;7.950;2023-05-16T14:01:38;7.95;;;1.80;;
55031;SDS011;40928;51.076;7.950;2023-05-16T14:04:03;3.08;;;0.50;;
55031;SDS011;40928;51.076;7.950;2023-05-16T14:06:29;4.68;;;0.85;;
55031;SDS011;40928;51.076;7.950;2023-05-16T14:08:56;2.00;;;0.50;;
55031;SDS011;40928;51.076;7.950;2023-05-16T14:14:03;3.53;;;0.73;;
55031;SDS011;40928;51.076;7.950;2023-05-16T14:16:29;3.05;;;0.88;;
55031;SDS011;40928;51.076;7.950;2023-05-16T14:18:55;4.38;;;1.10;;
55031;SDS011;40928;51.076;7.950;2023-05-16T14:21:21;2.58;;;0.65;;
55031;SDS011;40928;51.076;7.950;2023-05-16T14:23:46;4.03;;;0.60;;
55031;SDS011;40928;51.076;7.950;2023-05-16T14:26:15;5.63;;;0.70;;
55031;SDS011;40928;51.076;7.950;2023-05-16T14:28:42;4.35;;;0.85;;
55031;SDS011;40928;51.076;7.950;2023-05-16T14:31:08;3.88;;;0.70;;
55031;SDS011;40928;51.076;7.950;2023-05-16T14:33:34;4.07;;;0.63;;
55031;SDS011;40928;51.076;7.950;2023-05-16T14:36:00;9.25;;;1.13;;
55031;SDS011;40928;51.076;7.950;2023-05-16T14:38:26;6.07;;;0.90;;
55031;SDS011;40928;51.076;7.950;2023-05-16T14:40:52;3.70;;;0.88;;
55031;SDS011;40928;51.076;7.950;2023-05-16T14:43:18;4.35;;;0.60;;
55031;SDS011;40928;51.076;7.950;2023-05-16T14:45:43;4.28;;;0.90;;
55031;SDS011;40928;51.076;7.950;2023-05-16T14:48:09;3.17;;;0.88;;
55031;SDS011;40928;51.076;7.950;2023-05-16T14:50:35;3.95;;;0.95;;
55031;SDS011;40928;51.076;7.950;2023-05-16T14:53:01;4.68;;;1.15;;
55031;SDS011;40928;51.076;7.950;2023-05-16T14:55:27;4.75;;;0.90;;
55031;SDS011;40928;51.076;7.950;2023-05-16T14:57:53;5.25;;;0.80;;
55031;SDS011;40928;51.076;7.950;2023-05-16T15:00:22;7.57;;;0.90;;
55031;SDS011;40928;51.076;7.950;2023-05-16T15:02:49;5.75;;;1.02;;
55031;SDS011;40928;51.076;7.950;2023-05-16T15:05:15;2.63;;;0.70;;
55031;SDS011;40928;51.076;7.950;2023-05-16T15:07:40;2.45;;;0.77;;
55031;SDS011;40928;51.076;7.950;2023-05-16T15:10:08;4.18;;;0.50;;
55031;SDS011;40928;51.076;7.950;2023-05-16T15:12:34;4.38;;;0.60;;
55031;SDS011;40928;51.076;7.950;2023-05-16T15:15:00;6.90;;;0.93;;
55031;SDS011;40928;51.076;7.950;2023-05-16T15:17:26;6.07;;;0.60;;
55031;SDS011;40928;51.076;7.950;2023-05-16T15:19:51;6.53;;;1.02;;